Wetterstation Vordersexau
Wetterdaten: Juli 2012
Datum Temp. A. Feuchte A. Luftdruck Regen Wind Richtung Taupunkt Windchill Windben
01.07.2012 17,5 C 80 % 1016,2 hPa 11,4 l/m 21,5 km/h W-NW 14,0 C 13,7 C 12,0 km/h
02.07.2012 17,6 C 79 % 1015,8 hPa 3,2 l/m 12,2 km/h SO 13,8 C 15,4 C 6,8 km/h
03.07.2012 19,3 C 72 % 1016,1 hPa 1,8 l/m 14,7 km/h W 14,0 C 16,6 C 8,2 km/h
04.07.2012 22,5 C 68 % 1011,6 hPa 0,0 l/m 1,1 km/h N-NO 15,9 C 22,4 C 0,6 km/h
05.07.2012 23,1 C 69 % 1008,6 hPa 0,0 l/m 2,0 km/h SO 16,7 C 23,0 C 1,1 km/h
06.07.2012 20,4 C 72 % 1010,6 hPa 7,5 l/m 2,2 km/h W 14,8 C 20,4 C 1,2 km/h
07.07.2012 22,5 C 64 % 1011,2 hPa 0,0 l/m 2,9 km/h O-NO 14,7 C 22,4 C 1,6 km/h
08.07.2012 20,8 C 68 % 1009,5 hPa 8,2 l/m 9,6 km/h SW 14,2 C 19,7 C 5,3 km/h
09.07.2012 21,9 C 63 % 1012,8 hPa 0,0 l/m 2,7 km/h W-SW 14,2 C 21,7 C 1,5 km/h
10.07.2012 21,8 C 65 % 1012,3 hPa 2,8 l/m 5,2 km/h SO 13,9 C 21,4 C 2,9 km/h
11.07.2012 18,8 C 67 % 1014,1 hPa 3,9 l/m 5,5 km/h W-SW 12,2 C 18,1 C 3,0 km/h
12.07.2012 17,6 C 67 % 1016,0 hPa 0,0 l/m 9,4 km/h W 11,1 C 16,1 C 5,2 km/h
13.07.2012 16,9 C 76 % 1009,3 hPa 4,6 l/m 3,6 km/h S-SO 12,5 C 16,4 C 2,0 km/h
14.07.2012 19,2 C 67 % 1007,8 hPa 0,4 l/m 14,8 km/h SW 12,6 C 16,6 C 8,2 km/h
15.07.2012 15,8 C 75 % 1015,0 hPa 3,2 l/m 6,9 km/h W-SW 11,3 C 14,6 C 3,8 km/h
16.07.2012 17,2 C 64 % 1024,1 hPa 0,0 l/m 4,5 km/h S-SW 9,8 C 16,6 C 2,5 km/h
17.07.2012 20,1 C 60 % 1023,6 hPa 0,0 l/m 10,1 km/h SW 11,8 C 18,2 C 5,6 km/h
18.07.2012 22,8 C 62 % 1017,4 hPa 0,0 l/m 7,4 km/h W-SW 14,4 C 22,3 C 4,1 km/h
19.07.2012 19,7 C 71 % 1011,6 hPa 0,0 l/m 6,7 km/h W-SW 14,2 C 18,8 C 3,8 km/h
20.07.2012 16,3 C 77 % 1014,4 hPa 1,1 l/m 0,3 km/h SO 12,1 C 16,3 C 0,2 km/h
21.07.2012 16,4 C 74 % 1018,2 hPa 1,4 l/m 3,4 km/h SO 11,5 C 15,8 C 1,9 km/h
22.07.2012 17,6 C 60 % 1023,0 hPa 0,0 l/m 1,3 km/h N-NO 8,5 C 17,5 C 0,8 km/h
23.07.2012 20,2 C 55 % 1020,6 hPa 0,0 l/m 2,5 km/h N-NO 9,5 C 19,8 C 1,4 km/h
24.07.2012 22,2 C 62 % 1014,8 hPa 0,0 l/m 3,2 km/h N-NO 13,6 C 22,2 C 1,8 km/h
25.07.2012 25,6 C 59 % 1013,1 hPa 0,0 l/m 2,2 km/h SO 15,4 C 25,6 C 1,2 km/h
26.07.2012 26,8 C 57 % 1014,0 hPa 0,0 l/m 2,0 km/h SO 16,3 C 26,8 C 1,1 km/h
27.07.2012 28,0 C 59 % 1010,6 hPa 0,0 l/m 2,3 km/h N-NO 17,9 C 27,9 C 1,3 km/h
28.07.2012 24,1 C 69 % 1009,0 hPa 2,8 l/m 3,9 km/h NO 17,7 C 23,7 C 2,1 km/h
29.07.2012 19,3 C 71 % 1012,8 hPa 5,7 l/m 2,9 km/h W 13,7 C 18,9 C 1,6 km/h
30.07.2012 18,8 C 65 % 1016,8 hPa 0,0 l/m 5,1 km/h O-SO 11,5 C 18,3 C 2,8 km/h
31.07.2012 20,8 C 64 % 1016,8 hPa 0,0 l/m 2,3 km/h O-SO 13,0 C 20,6 C 1,3 km/h
Min-Datum 23.07.12 25.07.12 14.07.12 14 Tage 01.07.12 - 22.07.12 23.07.12 01.07.12
Min-Zeit 06:19 18:19 01:19 - 01:19 - 06:19 05:19 01:19
Minimum 7,9 C 24 % 1003,8 hPa - 0,0 km/h - 4,9 C 0,2 C 0,0 km/h
Max-Datum 27.07.12 03.07.12 16.07.12 01.07.12 01.07.12 - 27.07.12 27.07.12 01.07.12
Max-Zeit 17:19 12:19 11:19 00:19 13:19 - 19:19 17:19 13:19
Maximum 43,6 C 84 % 1025,6 hPa 11,4 l/m 53,1 km/h
W-NW
- 22,6 C 43,6 C 29,5 km/h
W-NW
Durchschnitt 20,4 C 67 % 1014,4 hPa #58,0 l/m 5,6 km/h SO 13,4 C 19,6 C 3,1 km/h

Durchschnitt Minimum Temp.13,7 C
Durchschnitt Maximum Temp.29,5 C
www.sexauwetter.de